Time;durP1;ratioP1;P1;durP2;ratioP2;P2;SDS_P1;SDS_P2;PMS_P1;PMS_P2;Temp;Humidity;BMP_temperature;BMP_pressure;BME280_temperature;BME280_humidity;BME280_pressure;Samples;Min_cycle;Max_cycle;Signal;HPM_P1;HPM_P2
2022/07/24 00:02:15;;;;;;;5.80;2.80;;;;;;;22.53;59.77;99655.48;1726370;82;21045;-71
2022/07/24 00:04:41;;;;;;;3.20;2.77;;;;;;;22.53;59.91;99649.52;1703533;83;21107;-72
2022/07/24 00:07:09;;;;;;;4.05;2.70;;;;;;;22.53;59.82;99656.29;1713536;82;21034;-72
2022/07/24 00:09:36;;;;;;;3.05;2.85;;;;;;;22.53;59.86;99650.06;1713824;82;21026;-72
2022/07/24 00:12:03;;;;;;;3.35;3.05;;;;;;;22.53;59.93;99647.36;1713822;83;21561;-72
2022/07/24 00:14:31;;;;;;;3.50;2.50;;;;;;;22.53;59.91;99647.36;1713633;83;21042;-71
2022/07/24 00:16:58;;;;;;;4.45;2.87;;;;;;;22.51;60.12;99654.37;1742265;82;21253;-69
2022/07/24 00:19:24;;;;;;;6.17;2.60;;;;;;;22.49;60.05;99655.69;1743142;81;21050;-70
2022/07/24 00:21:51;;;;;;;4.10;2.52;;;;;;;22.46;60.14;99651.58;1743632;82;21042;-71
2022/07/24 00:24:19;;;;;;;4.58;3.08;;;;;;;22.43;60.29;99649.92;1743419;81;21065;-71
2022/07/24 00:26:45;;;;;;;5.30;3.12;;;;;;;22.38;60.41;99652.00;1743482;82;21004;-73
2022/07/24 00:29:12;;;;;;;4.15;2.37;;;;;;;22.37;60.42;99654.44;1743382;82;21136;-71
2022/07/24 00:31:39;;;;;;;4.67;3.05;;;;;;;22.33;60.47;99646.00;1714066;82;21085;-73
2022/07/24 00:34:06;;;;;;;4.62;2.72;;;;;;;22.31;60.61;99652.70;1713863;83;21026;-71
2022/07/24 00:36:34;;;;;;;8.03;3.27;;;;;;;22.27;60.57;99651.56;1713765;83;21057;-71
2022/07/24 00:39:00;;;;;;;8.13;2.95;;;;;;;22.24;60.85;99653.39;1713902;83;21094;-72
2022/07/24 00:41:27;;;;;;;3.80;3.27;;;;;;;22.19;60.86;99657.66;1714096;83;21126;-69
2022/07/24 00:44:07;;;;;;;3.08;2.87;;;;;;;22.15;60.96;99653.78;1713863;83;21019;-70
2022/07/24 00:46:34;;;;;;;5.83;2.98;;;;;;;22.13;60.95;99653.75;1714111;82;21003;-70
2022/07/24 00:49:07;;;;;;;3.92;2.45;;;;;;;22.09;61.03;99657.48;1713749;82;21058;-73
2022/07/24 00:51:34;;;;;;;5.28;2.87;;;;;;;22.09;61.10;99658.02;1714020;83;21038;-71
2022/07/24 00:54:05;;;;;;;4.92;2.92;;;;;;;22.05;61.21;99651.47;1713811;82;21226;-72
2022/07/24 00:56:32;;;;;;;4.75;3.02;;;;;;;22.03;61.26;99649.55;1713836;83;21007;-73
2022/07/24 00:59:00;;;;;;;3.65;2.77;;;;;;;22.01;61.31;99657.90;1713776;83;21071;-73
2022/07/24 01:01:26;;;;;;;4.20;2.72;;;;;;;21.98;61.34;99657.02;1713745;83;21065;-74
2022/07/24 01:03:53;;;;;;;4.45;2.90;;;;;;;21.96;61.32;99652.39;1721332;82;21101;-72
2022/07/24 01:06:19;;;;;;;3.47;2.70;;;;;;;21.95;61.24;99654.83;1726649;82;21109;-72
2022/07/24 01:08:46;;;;;;;3.02;2.65;;;;;;;21.93;61.32;99667.77;1726635;82;21043;-71
2022/07/24 01:11:13;;;;;;;4.25;2.67;;;;;;;21.88;61.35;99667.14;1710155;83;21080;-72
2022/07/24 01:13:41;;;;;;;3.95;2.70;;;;;;;21.89;61.51;99670.14;1726573;82;21088;-70
2022/07/24 01:16:08;;;;;;;4.05;3.17;;;;;;;21.86;61.46;99666.56;1726570;83;21028;-72
2022/07/24 01:18:36;;;;;;;4.10;2.70;;;;;;;21.85;61.38;99669.00;1726685;82;21502;-72
2022/07/24 01:21:04;;;;;;;2.58;2.37;;;;;;;21.83;61.46;99663.02;1710237;83;21569;-73
2022/07/24 01:23:32;;;;;;;6.90;3.52;;;;;;;21.83;61.45;99669.77;1726781;83;21053;-72
2022/07/24 01:26:00;;;;;;;3.95;3.00;;;;;;;21.83;61.32;99672.48;1726725;83;20997;-72
2022/07/24 01:28:26;;;;;;;4.45;3.22;;;;;;;21.83;61.42;99671.13;1710245;83;21041;-73
2022/07/24 01:30:54;;;;;;;4.62;3.35;;;;;;;21.82;61.49;99668.13;1747019;81;22130;-72
2022/07/24 01:33:21;;;;;;;5.17;2.83;;;;;;;21.80;61.49;99664.84;1757054;81;21069;-71
2022/07/24 01:35:48;;;;;;;3.60;2.90;;;;;;;21.78;61.31;99662.38;1757018;81;21050;-70
2022/07/24 01:38:15;;;;;;;3.72;2.72;;;;;;;21.76;61.33;99657.74;1756699;81;21124;-71
2022/07/24 01:40:43;;;;;;;5.75;3.42;;;;;;;21.76;61.41;99660.45;1756991;81;21053;-70
2022/07/24 01:43:09;;;;;;;5.92;3.10;;;;;;;21.75;61.35;99662.88;1757058;81;21518;-70
2022/07/24 01:45:36;;;;;;;3.25;2.67;;;;;;;21.74;61.43;99661.23;1757728;81;20987;-71
2022/07/24 01:48:03;;;;;;;5.37;2.77;;;;;;;21.72;61.44;99664.70;1757742;81;21022;-73
2022/07/24 01:50:31;;;;;;;3.25;2.95;;;;;;;21.72;61.42;99663.89;1757610;81;21068;-71
2022/07/24 01:52:58;;;;;;;3.62;3.00;;;;;;;21.71;61.45;99659.53;1757656;81;21007;-72
2022/07/24 01:55:26;;;;;;;4.95;3.20;;;;;;;21.71;61.43;99658.19;1757395;81;21021;-71
2022/07/24 01:57:53;;;;;;;4.33;3.25;;;;;;;21.70;61.45;99654.67;1740581;81;21100;-71
2022/07/24 02:00:19;;;;;;;3.98;2.98;;;;;;;21.70;61.48;99660.61;1756977;81;21045;-72
2022/07/24 02:02:46;;;;;;;4.70;3.10;;;;;;;21.69;61.51;99654.40;1756776;81;21049;-71
2022/07/24 02:05:15;;;;;;;4.50;3.27;;;;;;;21.69;61.40;99654.91;1756968;81;20994;-71
2022/07/24 02:07:42;;;;;;;6.17;3.12;;;;;;;21.69;61.34;99654.91;1756825;81;21530;-72
2022/07/24 02:10:12;;;;;;;5.60;2.92;;;;;;;21.67;61.45;99652.47;1756642;81;21324;-72
2022/07/24 02:12:38;;;;;;;3.52;3.22;;;;;;;21.67;61.55;99653.82;1757413;81;21084;-71
2022/07/24 02:15:05;;;;;;;3.35;2.87;;;;;;;21.65;61.56;99655.11;1757084;81;21562;-71
2022/07/24 02:17:32;;;;;;;4.12;3.22;;;;;;;21.62;61.59;99651.55;1757322;81;21042;-71
2022/07/24 02:19:59;;;;;;;3.25;2.90;;;;;;;21.59;61.69;99652.84;1757232;81;21224;-71
2022/07/24 02:22:26;;;;;;;4.22;2.90;;;;;;;21.58;61.71;99653.38;1757985;81;20999;-71
2022/07/24 02:24:52;;;;;;;5.40;3.15;;;;;;;21.58;61.87;99662.03;1758439;81;20997;-72
2022/07/24 02:27:19;;;;;;;5.90;3.00;;;;;;;21.57;61.92;99661.73;1757013;81;21363;-70
2022/07/24 02:29:45;;;;;;;4.50;3.42;;;;;;;21.56;62.01;99664.16;1756872;81;21534;-70
2022/07/24 02:32:12;;;;;;;3.72;2.60;;;;;;;21.55;62.21;99661.16;1756716;81;22221;-73
2022/07/24 02:34:40;;;;;;;3.40;3.10;;;;;;;21.53;62.25;99659.22;1756543;81;21065;-70
2022/07/24 02:37:07;;;;;;;5.15;3.02;;;;;;;21.52;62.38;99660.30;1756632;81;21557;-72
2022/07/24 02:39:33;;;;;;;4.15;2.87;;;;;;;21.51;62.40;99667.56;1756675;81;21556;-71
2022/07/24 02:42:00;;;;;;;5.78;3.08;;;;;;;21.50;62.58;99669.16;1756641;81;21064;-72
2022/07/24 02:44:27;;;;;;;4.90;2.90;;;;;;;21.48;62.70;99673.47;1756551;81;21344;-72
2022/07/24 02:46:53;;;;;;;3.40;2.77;;;;;;;21.48;62.83;99668.58;1756922;81;20998;-74
2022/07/24 02:49:20;;;;;;;3.35;2.80;;;;;;;21.49;62.82;99671.05;1756588;81;21061;-70
2022/07/24 02:51:47;;;;;;;5.72;3.40;;;;;;;21.50;62.84;99667.30;1756731;81;21042;-73
2022/07/24 02:54:14;;;;;;;4.30;3.10;;;;;;;21.49;63.01;99676.45;1756585;81;21005;-70
2022/07/24 02:56:40;;;;;;;5.55;3.20;;;;;;;21.49;63.07;99679.16;1756722;81;21304;-71
2022/07/24 02:59:07;;;;;;;5.58;3.27;;;;;;;21.49;63.11;99667.53;1756428;81;21030;-70
2022/07/24 03:01:35;;;;;;;2.75;2.52;;;;;;;21.52;63.06;99672.47;1756582;81;21033;-71
2022/07/24 03:04:02;;;;;;;3.87;3.40;;;;;;;21.51;63.09;99662.70;1751949;81;21557;-71
2022/07/24 03:06:29;;;;;;;5.08;3.35;;;;;;;21.52;63.07;99653.01;1743400;81;21074;-73
2022/07/24 03:08:56;;;;;;;4.85;3.92;;;;;;;21.55;63.11;99653.05;1743370;82;21650;-72
2022/07/24 03:11:23;;;;;;;5.55;2.90;;;;;;;21.55;63.16;99659.27;1743309;82;21522;-72
2022/07/24 03:13:49;;;;;;;5.03;3.08;;;;;;;21.56;63.03;99651.45;1743446;81;21011;-72
2022/07/24 03:16:16;;;;;;;4.83;2.87;;;;;;;21.57;63.02;99647.67;1743649;82;21007;-71
2022/07/24 03:18:48;;;;;;;3.75;3.30;;;;;;;21.60;62.99;99643.69;1743405;82;21489;-71
2022/07/24 03:21:15;;;;;;;4.72;3.12;;;;;;;21.61;62.92;99643.95;1753494;81;21192;-71
2022/07/24 03:23:42;;;;;;;3.20;2.72;;;;;;;21.65;62.95;99644.30;1768971;81;21072;-72
2022/07/24 03:26:10;;;;;;;5.30;3.02;;;;;;;21.67;62.84;99653.82;1769064;81;21069;-72
2022/07/24 03:28:37;;;;;;;6.78;3.08;;;;;;;21.69;62.80;99640.88;1768956;81;21020;-71
2022/07/24 03:31:03;;;;;;;3.77;2.77;;;;;;;21.74;62.82;99643.66;1750131;80;21062;-73
2022/07/24 03:33:30;;;;;;;3.45;2.80;;;;;;;21.79;62.75;99640.23;1743292;81;21062;-72
2022/07/24 03:35:58;;;;;;;3.30;2.83;;;;;;;21.82;62.62;99635.67;1743232;81;21054;-70
2022/07/24 03:38:24;;;;;;;4.85;2.98;;;;;;;21.86;62.54;99639.52;1743252;82;21089;-72
2022/07/24 03:40:53;;;;;;;6.42;3.37;;;;;;;21.91;62.42;99641.52;1743591;81;21005;-72
2022/07/24 03:43:21;;;;;;;3.50;3.20;;;;;;;21.98;62.33;99643.50;1743320;81;21039;-70
2022/07/24 03:45:47;;;;;;;2.83;2.62;;;;;;;22.03;62.21;99640.08;1743387;81;21536;-70
2022/07/24 03:48:14;;;;;;;3.22;2.90;;;;;;;22.07;62.15;99643.38;1743288;82;21039;-72
2022/07/24 03:50:41;;;;;;;4.22;2.98;;;;;;;22.10;62.19;99648.31;1743257;81;21038;-71
2022/07/24 03:53:07;;;;;;;6.30;3.25;;;;;;;22.14;62.17;99645.40;1743199;81;21022;-73
2022/07/24 03:55:33;;;;;;;4.22;2.87;;;;;;;22.19;62.05;99651.41;1743227;81;21107;-70
2022/07/24 03:58:00;;;;;;;5.85;2.72;;;;;;;22.23;61.89;99644.98;1743295;82;21339;-70
2022/07/24 04:00:26;;;;;;;3.95;3.20;;;;;;;22.28;61.73;99650.51;1743050;81;21078;-71
2022/07/24 04:02:53;;;;;;;3.60;2.80;;;;;;;22.31;61.44;99650.00;1743698;81;21105;-70
2022/07/24 04:05:19;;;;;;;5.90;3.12;;;;;;;22.33;61.50;99646.53;1753232;80;21109;-69
2022/07/24 04:07:46;;;;;;;4.20;3.33;;;;;;;22.37;61.44;99639.02;1756735;81;21051;-72
2022/07/24 04:10:12;;;;;;;4.40;3.00;;;;;;;22.43;61.46;99641.81;1754147;81;21097;-71
2022/07/24 04:12:40;;;;;;;6.80;3.20;;;;;;;22.48;61.51;99643.22;1742490;81;21062;-71
2022/07/24 04:15:08;;;;;;;5.37;3.08;;;;;;;22.52;61.41;99643.00;1739743;81;21034;-75
2022/07/24 04:19:11;;;;;;;5.10;3.70;;;;;;;22.62;61.26;99644.52;1806599;78;22678;-71
2022/07/24 04:21:40;;;;;;;6.00;3.30;;;;;;;22.61;61.26;99640.16;1788280;80;20962;-71
2022/07/24 04:24:07;;;;;;;5.17;3.05;;;;;;;22.67;61.22;99641.86;1767133;80;22089;-70
2022/07/24 04:26:34;;;;;;;4.92;3.35;;;;;;;22.75;61.04;99628.42;1772338;80;21021;-70
2022/07/24 04:29:02;;;;;;;3.47;3.17;;;;;;;22.86;60.86;99638.31;1763876;80;20929;-71
2022/07/24 04:31:31;;;;;;;4.78;3.70;;;;;;;22.96;60.54;99628.95;1756337;80;21096;-70
2022/07/24 04:33:57;;;;;;;3.27;3.08;;;;;;;23.04;60.31;99631.78;1753713;81;21513;-71
2022/07/24 04:36:24;;;;;;;5.40;2.98;;;;;;;23.14;60.06;99621.09;1769224;80;22294;-73
2022/07/24 04:38:50;;;;;;;3.02;2.80;;;;;;;23.23;59.80;99615.20;1781175;80;20991;-72
2022/07/24 04:41:18;;;;;;;7.45;3.55;;;;;;;23.27;59.40;99606.84;1758060;80;20971;-72
2022/07/24 04:43:45;;;;;;;6.08;2.90;;;;;;;23.32;59.45;99609.63;1775613;80;21042;-73
2022/07/24 04:46:11;;;;;;;3.15;2.50;;;;;;;23.35;59.51;99605.02;1756325;80;21034;-72
2022/07/24 04:48:38;;;;;;;5.33;2.80;;;;;;;23.40;59.40;99601.02;1759713;81;21291;-73
2022/07/24 04:51:05;;;;;;;3.95;3.05;;;;;;;23.46;59.53;99593.75;1779100;79;21006;-72
2022/07/24 04:53:31;;;;;;;3.95;2.50;;;;;;;23.54;59.35;99594.64;1764215;80;21070;-74
2022/07/24 04:55:58;;;;;;;5.20;2.95;;;;;;;23.63;59.22;99597.72;1751248;82;21074;-71
2022/07/24 04:58:25;;;;;;;5.28;2.98;;;;;;;23.70;58.95;99599.66;1787668;80;21085;-70
2022/07/24 05:00:52;;;;;;;3.80;2.98;;;;;;;23.76;58.78;99598.64;1790200;80;21494;-72
2022/07/24 05:03:19;;;;;;;5.30;3.20;;;;;;;23.86;58.63;99600.65;1774468;80;21118;-70
2022/07/24 05:05:45;;;;;;;3.60;3.30;;;;;;;23.96;58.44;99591.22;1757819;80;21065;-69
2022/07/24 05:08:13;;;;;;;5.42;2.65;;;;;;;24.05;58.25;99593.73;1710345;83;21507;-69
2022/07/24 05:10:41;;;;;;;5.20;3.20;;;;;;;24.17;58.31;99590.02;1749303;81;21058;-71
2022/07/24 05:13:08;;;;;;;4.60;2.83;;;;;;;24.29;58.39;99587.91;1719402;82;21240;-73
2022/07/24 05:15:35;;;;;;;4.85;3.50;;;;;;;24.42;58.06;99595.59;1753523;81;21092;-73
2022/07/24 05:18:01;;;;;;;4.17;3.47;;;;;;;24.47;58.09;99583.41;1747543;81;21026;-70
2022/07/24 05:20:28;;;;;;;5.42;3.65;;;;;;;24.57;57.92;99588.63;1698364;83;22039;-72
2022/07/24 05:22:56;;;;;;;3.33;2.98;;;;;;;24.62;57.67;99579.16;1700500;83;21037;-74
2022/07/24 05:25:23;;;;;;;3.37;3.08;;;;;;;24.69;57.09;99593.32;1717837;83;21250;-73
2022/07/24 05:27:49;;;;;;;3.95;3.00;;;;;;;24.68;57.04;99588.41;1682505;84;21549;-74
2022/07/24 05:30:17;;;;;;;4.58;2.95;;;;;;;24.69;57.10;99579.73;1706838;83;21516;-74
2022/07/24 05:32:44;;;;;;;3.42;2.58;;;;;;;24.73;57.23;99575.41;1721817;83;21010;-73
2022/07/24 05:35:10;;;;;;;3.37;2.55;;;;;;;24.79;56.96;99582.48;1721717;83;21124;-73
2022/07/24 05:37:38;;;;;;;5.70;2.92;;;;;;;24.81;56.83;99581.67;1701646;83;21134;-73
2022/07/24 05:40:06;;;;;;;6.33;3.27;;;;;;;24.82;56.87;99585.20;1752229;80;21085;-73
2022/07/24 05:42:33;;;;;;;5.25;3.15;;;;;;;24.82;56.80;99593.35;1777201;79;21560;-75
2022/07/24 05:44:59;;;;;;;6.37;3.00;;;;;;;24.81;57.25;99594.45;1780688;79;21067;-74
2022/07/24 05:47:26;;;;;;;3.65;3.05;;;;;;;24.84;57.18;99584.39;1782346;80;21048;-74
2022/07/24 05:49:53;;;;;;;5.83;3.00;;;;;;;24.86;57.22;99583.06;1753101;80;21747;-76
2022/07/24 05:52:19;;;;;;;4.12;2.70;;;;;;;24.84;56.93;99594.73;1774223;79;20998;-74
2022/07/24 05:54:46;;;;;;;4.47;3.02;;;;;;;24.81;57.29;99592.55;1780245;80;21022;-73
2022/07/24 05:57:13;;;;;;;3.52;3.15;;;;;;;24.81;57.51;99590.37;1757266;80;21589;-73
2022/07/24 05:59:39;;;;;;;3.72;3.20;;;;;;;24.84;57.77;99596.09;1729056;81;21504;-75
2022/07/24 06:02:06;;;;;;;5.40;2.80;;;;;;;24.89;57.67;99596.09;1757264;79;21021;-73
2022/07/24 06:04:35;;;;;;;4.35;2.80;;;;;;;24.95;57.48;99592.05;1751439;82;22240;-71
2022/07/24 06:07:01;;;;;;;3.33;3.02;;;;;;;24.96;57.68;99591.79;1759238;80;21049;-72
2022/07/24 06:09:28;;;;;;;4.87;3.22;;;;;;;25.02;57.34;99593.44;1777807;80;21030;-73
2022/07/24 06:11:55;;;;;;;8.03;3.10;;;;;;;25.07;57.72;99592.62;1752285;79;21643;-74
2022/07/24 06:14:22;;;;;;;3.77;3.08;;;;;;;25.13;57.16;99586.14;1768567;80;21539;-73
2022/07/24 06:16:49;;;;;;;6.50;2.92;;;;;;;25.17;56.50;99591.83;1760368;79;21053;-73
2022/07/24 06:19:16;;;;;;;5.97;3.40;;;;;;;25.20;57.00;99586.67;1769782;80;21002;-77
2022/07/24 06:21:43;;;;;;;4.25;2.95;;;;;;;25.24;57.10;99593.23;1746286;80;21061;-74
2022/07/24 06:24:09;;;;;;;8.10;3.35;;;;;;;25.28;57.14;99587.56;1746058;80;21067;-73
2022/07/24 06:26:35;;;;;;;3.75;2.67;;;;;;;25.32;56.81;99591.89;1762424;80;21219;-74
2022/07/24 06:29:03;;;;;;;4.10;2.77;;;;;;;25.32;57.05;99585.09;1774443;80;21529;-73
2022/07/24 06:31:30;;;;;;;3.10;2.85;;;;;;;25.31;57.15;99594.35;1770209;80;21013;-72
2022/07/24 06:33:56;;;;;;;3.45;2.80;;;;;;;25.25;56.72;99593.52;1750220;80;21640;-75
2022/07/24 06:36:25;;;;;;;3.40;3.05;;;;;;;25.20;57.06;99596.19;1760011;80;21497;-75
2022/07/24 06:38:51;;;;;;;3.20;2.70;;;;;;;25.17;57.30;99587.23;1686870;84;21164;-74
2022/07/24 06:41:17;;;;;;;3.83;2.77;;;;;;;25.20;57.80;99588.03;1751452;80;21253;-74
2022/07/24 06:43:44;;;;;;;3.80;2.83;;;;;;;25.24;57.90;99586.98;1743518;82;21105;-76
2022/07/24 06:46:11;;;;;;;6.67;3.30;;;;;;;25.23;58.62;99586.19;1743986;80;21041;-74
2022/07/24 06:48:38;;;;;;;3.77;3.45;;;;;;;25.25;58.93;99577.22;1690190;83;21059;-73
2022/07/24 06:51:05;;;;;;;3.75;3.40;;;;;;;25.29;59.49;99565.27;1680702;84;21071;-74
2022/07/24 06:53:31;;;;;;;4.45;3.45;;;;;;;25.35;59.28;99570.17;1767982;80;21058;-74
2022/07/24 06:55:58;;;;;;;5.58;3.92;;;;;;;25.39;58.66;99573.97;1763377;80;21101;-74
2022/07/24 06:58:24;;;;;;;4.90;3.33;;;;;;;25.39;59.06;99569.34;1764534;80;21042;-73
2022/07/24 07:00:51;;;;;;;9.98;4.37;;;;;;;25.41;59.24;99569.08;1687947;85;21090;-75
2022/07/24 07:03:18;;;;;;;4.65;3.50;;;;;;;25.40;58.66;99571.52;1755433;80;21114;-74
2022/07/24 07:05:46;;;;;;;4.62;3.58;;;;;;;25.35;58.38;99572.88;1747142;80;21014;-74
2022/07/24 07:08:12;;;;;;;7.85;4.47;;;;;;;25.30;57.93;99562.28;1762782;81;21082;-75
2022/07/24 07:10:40;;;;;;;4.53;3.17;;;;;;;25.27;58.46;99549.77;1687765;85;21030;-75
2022/07/24 07:13:08;;;;;;;4.37;3.87;;;;;;;25.25;58.44;99552.75;1762826;81;21079;-76
2022/07/24 07:15:35;;;;;;;4.87;3.60;;;;;;;25.29;58.46;99542.16;1701064;84;21103;-74
2022/07/24 07:18:03;;;;;;;3.92;3.12;;;;;;;25.34;58.76;99542.14;1773860;80;21007;-75
2022/07/24 07:20:31;;;;;;;3.70;3.40;;;;;;;25.41;58.78;99543.25;1763674;80;21041;-73
2022/07/24 07:22:57;;;;;;;4.08;3.17;;;;;;;25.44;57.56;99535.89;1774125;80;21117;-74
2022/07/24 07:25:23;;;;;;;4.53;2.83;;;;;;;25.46;57.91;99529.66;1769764;80;21066;-74
2022/07/24 07:27:50;;;;;;;4.45;2.90;;;;;;;25.51;57.22;99543.24;1691929;83;21498;-75
2022/07/24 07:30:17;;;;;;;3.65;3.35;;;;;;;25.55;56.72;99536.17;1769597;80;21613;-77
2022/07/24 07:32:43;;;;;;;3.37;2.72;;;;;;;25.59;57.27;99534.53;1717775;82;21054;-73
2022/07/24 07:35:09;;;;;;;2.60;2.40;;;;;;;25.62;56.19;99521.76;1725708;82;21071;-75
2022/07/24 07:37:37;;;;;;;3.83;2.87;;;;;;;25.68;55.18;99531.55;1772552;80;21042;-75
2022/07/24 07:40:06;;;;;;;4.20;3.12;;;;;;;25.75;53.40;99531.80;1760766;80;21201;-74
2022/07/24 07:42:32;;;;;;;4.25;2.65;;;;;;;25.80;52.92;99532.62;1758812;80;21686;-75
2022/07/24 07:44:59;;;;;;;4.28;2.70;;;;;;;25.83;52.79;99524.47;1773938;80;21089;-74
2022/07/24 07:47:25;;;;;;;3.30;2.85;;;;;;;25.87;52.91;99521.47;1758325;80;21089;-74
2022/07/24 07:49:52;;;;;;;6.58;2.70;;;;;;;25.94;52.23;99533.45;1745835;80;21031;-75
2022/07/24 07:52:18;;;;;;;5.03;2.70;;;;;;;25.97;52.61;99531.55;1754551;80;21175;-75
2022/07/24 07:54:45;;;;;;;3.33;3.02;;;;;;;26.00;52.19;99525.53;1743907;80;21223;-75
2022/07/24 07:57:11;;;;;;;3.92;2.50;;;;;;;26.07;52.26;99529.61;1761714;80;21505;-76
2022/07/24 07:59:40;;;;;;;3.02;2.60;;;;;;;26.18;51.59;99530.96;1766680;80;21004;-75
2022/07/24 08:02:06;;;;;;;3.17;2.87;;;;;;;26.28;51.10;99510.50;1774002;80;21037;-75
2022/07/24 08:04:33;;;;;;;2.58;2.20;;;;;;;26.41;51.95;99518.08;1754718;80;21095;-72
2022/07/24 08:06:59;;;;;;;3.27;2.65;;;;;;;26.52;50.94;99507.13;1774003;80;21101;-72
2022/07/24 08:09:25;;;;;;;2.58;2.37;;;;;;;26.59;50.94;99509.05;1756063;80;21634;-74
2022/07/24 08:11:53;;;;;;;2.52;2.33;;;;;;;26.67;51.13;99505.17;1734899;82;21016;-71
2022/07/24 08:14:21;;;;;;;5.28;2.35;;;;;;;26.76;50.06;99509.50;1755080;80;21011;-74
2022/07/24 08:16:48;;;;;;;3.35;2.65;;;;;;;26.82;50.63;99503.47;1695044;83;21219;-75
2022/07/24 08:19:14;;;;;;;2.67;2.47;;;;;;;26.91;50.25;99497.70;1761318;80;21045;-74
2022/07/24 08:21:42;;;;;;;4.25;3.05;;;;;;;27.06;49.44;99503.58;1772085;80;21047;-73
2022/07/24 08:24:09;;;;;;;3.70;2.60;;;;;;;27.20;49.30;99504.59;1754519;80;21082;-72
2022/07/24 08:26:35;;;;;;;4.80;2.72;;;;;;;27.32;49.42;99503.45;1735047;82;21042;-71
2022/07/24 08:29:02;;;;;;;4.35;2.92;;;;;;;27.45;48.77;99499.50;1734942;82;21146;-73
2022/07/24 08:31:29;;;;;;;4.95;2.90;;;;;;;27.59;48.45;99496.12;1762816;80;21031;-71
2022/07/24 08:33:56;;;;;;;3.30;2.55;;;;;;;27.77;48.30;99499.47;1764109;81;21055;-72
2022/07/24 08:36:22;;;;;;;3.05;2.75;;;;;;;27.95;47.93;99503.44;1689903;84;21019;-71
2022/07/24 08:38:48;;;;;;;4.55;2.40;;;;;;;28.12;46.66;99503.52;1707698;84;21057;-72
2022/07/24 08:41:15;;;;;;;3.60;3.00;;;;;;;28.22;47.13;99485.11;1707095;84;21131;-74
2022/07/24 08:43:42;;;;;;;3.92;2.80;;;;;;;28.34;46.23;99493.44;1774036;80;21042;-74
2022/07/24 08:46:10;;;;;;;5.00;3.00;;;;;;;28.39;46.41;99485.16;1764456;80;21033;-73
2022/07/24 08:48:43;;;;;;;3.77;2.90;;;;;;;28.47;46.61;99485.06;1754684;80;21034;-72
2022/07/24 08:51:13;;;;;;;3.27;2.98;;;;;;;28.62;45.53;99505.39;1773917;80;21805;-73
2022/07/24 08:53:40;;;;;;;3.77;2.90;;;;;;;28.73;45.52;99487.75;1749514;80;21210;-73
2022/07/24 08:56:07;;;;;;;3.98;2.92;;;;;;;28.83;44.61;99486.23;1736848;82;21057;-75
2022/07/24 08:58:39;;;;;;;5.30;3.20;;;;;;;28.97;44.78;99478.09;1728880;80;21121;-73
2022/07/24 09:01:06;;;;;;;4.85;2.65;;;;;;;29.16;45.03;99476.73;1773842;80;21051;-73
2022/07/24 09:03:45;;;;;;;3.70;2.95;;;;;;;29.35;45.10;99472.60;1774359;80;21062;-75
2022/07/24 09:06:13;;;;;;;3.12;2.40;;;;;;;29.54;45.19;99472.55;1736574;82;21544;-74
2022/07/24 09:08:42;;;;;;;3.95;2.83;;;;;;;29.71;44.93;99480.73;1714585;82;21538;-74
2022/07/24 09:11:09;;;;;;;7.90;2.62;;;;;;;29.82;44.60;99494.52;1757028;80;21613;-74
2022/07/24 09:16:26;;;;;;;3.33;2.72;;;;;;;29.75;43.69;99482.61;1762857;80;21090;-73
2022/07/24 09:19:08;;;;;;;3.25;2.70;;;;;;;29.75;43.72;99480.44;1700070;83;21805;-74
2022/07/24 09:21:37;;;;;;;2.77;2.57;;;;;;;29.78;44.27;99471.60;1783355;80;21081;-73
2022/07/24 09:24:18;;;;;;;3.00;2.70;;;;;;;29.99;43.95;99470.66;1776018;80;21066;-74
2022/07/24 09:26:52;;;;;;;5.25;3.10;;;;;;;30.15;42.91;99480.74;1709936;83;21069;-74
2022/07/24 09:29:20;;;;;;;5.12;3.05;;;;;;;30.14;42.66;99472.29;1788077;79;21139;-73
2022/07/24 09:31:53;;;;;;;5.12;2.90;;;;;;;30.05;42.64;99468.06;1774342;80;21729;-75
2022/07/24 09:34:19;;;;;;;3.62;2.55;;;;;;;30.04;43.44;99475.21;1778105;79;21185;-73
2022/07/24 09:37:00;;;;;;;4.42;3.02;;;;;;;30.04;43.30;99476.58;1755420;80;21129;-72
2022/07/24 09:39:28;;;;;;;6.28;2.75;;;;;;;29.93;43.60;99474.05;1769492;80;21054;-73
2022/07/24 09:41:56;;;;;;;2.75;2.30;;;;;;;29.86;44.13;99479.67;1779133;80;21454;-74
2022/07/24 09:44:23;;;;;;;3.80;3.00;;;;;;;29.78;43.70;99478.45;1761052;80;21118;-73
2022/07/24 09:46:57;;;;;;;4.75;3.08;;;;;;;29.71;44.42;99476.09;1746141;82;21038;-74
2022/07/24 09:49:24;;;;;;;6.03;2.72;;;;;;;29.66;44.46;99476.73;1751700;80;21155;-75
2022/07/24 09:52:15;;;;;;;4.87;2.70;;;;;;;29.55;44.35;99482.94;1745820;82;21101;-75
2022/07/24 09:54:49;;;;;;;2.92;2.60;;;;;;;29.35;44.73;99482.73;1746250;80;21071;-76
2022/07/24 09:57:25;;;;;;;8.93;2.77;;;;;;;29.19;45.14;99481.63;1751278;82;21257;-74
2022/07/24 10:00:00;;;;;;;5.85;2.52;;;;;;;29.07;45.52;99477.15;1751896;79;21003;-75
2022/07/24 10:02:30;;;;;;;5.25;2.90;;;;;;;29.01;45.32;99476.41;1712196;83;21107;-74
2022/07/24 10:04:58;;;;;;;3.20;2.87;;;;;;;28.90;45.60;99480.41;1737769;81;21081;-72
2022/07/24 10:07:26;;;;;;;4.30;2.77;;;;;;;28.83;45.77;99479.39;1752463;80;21104;-74
2022/07/24 10:09:56;;;;;;;4.05;2.50;;;;;;;28.79;45.62;99482.47;1771923;80;21272;-73
2022/07/24 10:12:26;;;;;;;5.28;2.62;;;;;;;28.79;45.78;99478.92;1774971;80;21093;-73
2022/07/24 10:14:56;;;;;;;4.35;3.05;;;;;;;28.82;46.29;99483.25;1782709;80;21025;-72
2022/07/24 10:17:43;;;;;;;3.45;2.30;;;;;;;28.90;45.81;99475.50;1756023;80;21003;-73
2022/07/24 10:20:12;;;;;;;3.83;2.40;;;;;;;28.95;45.44;99475.41;1752457;81;21261;-74
2022/07/24 10:22:54;;;;;;;3.87;2.45;;;;;;;29.03;45.61;99481.56;1738308;81;21147;-74
2022/07/24 10:25:21;;;;;;;5.62;2.50;;;;;;;29.07;45.62;99484.52;1735259;82;21070;-74
2022/07/24 10:27:49;;;;;;;4.80;2.42;;;;;;;29.08;45.35;99487.52;1736583;82;20999;-71
2022/07/24 10:30:16;;;;;;;7.35;2.70;;;;;;;29.05;44.98;99486.73;1736704;82;21585;-74
2022/07/24 10:32:43;;;;;;;3.15;2.62;;;;;;;28.95;45.18;99487.70;1736699;82;21460;-76
2022/07/24 10:35:15;;;;;;;3.25;2.30;;;;;;;28.90;45.68;99481.77;1736319;82;21038;-74
2022/07/24 10:38:12;;;;;;;3.98;2.30;;;;;;;28.90;45.82;99482.34;1741960;81;21682;-74
2022/07/24 10:40:53;;;;;;;5.05;2.62;;;;;;;28.93;45.95;99471.59;1736635;82;21053;-74
2022/07/24 10:43:22;;;;;;;4.50;2.52;;;;;;;29.01;46.39;99476.95;1736963;82;21039;-73
2022/07/24 10:46:00;;;;;;;4.37;2.98;;;;;;;29.05;45.57;99468.41;1736551;82;21351;-74
2022/07/24 10:48:30;;;;;;;5.28;2.62;;;;;;;29.04;45.19;99470.89;1736599;82;22015;-75
2022/07/24 10:51:15;;;;;;;3.02;2.72;;;;;;;29.04;45.10;99466.80;1736469;82;21535;-75
2022/07/24 10:53:49;;;;;;;5.90;2.58;;;;;;;29.05;45.17;99462.13;1736443;82;21561;-75
2022/07/24 10:56:38;;;;;;;2.50;2.30;;;;;;;29.07;45.18;99464.84;1737642;81;21041;-74
2022/07/24 10:59:10;;;;;;;2.70;2.50;;;;;;;29.10;45.23;99460.13;1736643;82;21041;-74
2022/07/24 11:01:44;;;;;;;;;;;;;;;29.16;45.69;99455.42;1739119;82;21483;-73
2022/07/24 11:04:26;;;;;;;10.25;4.10;;;;;;;29.19;45.92;99453.47;1736657;82;20143;-73
2022/07/24 11:06:58;;;;;;;3.67;3.05;;;;;;;29.21;45.62;99457.52;1736591;82;21067;-72
2022/07/24 11:09:27;;;;;;;2.90;2.60;;;;;;;29.26;45.79;99451.70;1765277;80;21061;-73
2022/07/24 11:12:02;;;;;;;4.58;3.20;;;;;;;29.31;47.03;99455.16;1758985;81;21054;-73
2022/07/24 11:14:44;;;;;;;3.55;3.22;;;;;;;29.32;46.61;99454.07;1783600;80;21120;-73
2022/07/24 11:17:43;;;;;;;3.72;3.33;;;;;;;29.29;46.88;99445.64;1788397;80;21453;-73
2022/07/24 11:20:11;;;;;;;4.62;2.85;;;;;;;29.35;47.32;99453.45;1786972;80;21049;-73
2022/07/24 11:22:51;;;;;;;4.30;2.95;;;;;;;29.51;47.33;99451.25;1785449;80;21028;-75
2022/07/24 11:25:26;;;;;;;4.10;3.27;;;;;;;29.59;46.81;99451.95;1785230;80;21076;-74
2022/07/24 11:27:57;;;;;;;5.25;4.55;;;;;;;29.59;47.23;99441.53;1733030;80;21117;-74
2022/07/24 11:30:29;;;;;;;4.92;4.42;;;;;;;29.61;48.58;99447.52;1728646;80;22084;-75
2022/07/24 11:32:57;;;;;;;6.05;4.55;;;;;;;29.65;48.50;99442.25;1736179;82;22263;-74
2022/07/24 11:35:33;;;;;;;5.50;4.80;;;;;;;29.58;48.65;99435.26;1734947;82;21124;-74
2022/07/24 11:38:01;;;;;;;5.83;5.25;;;;;;;29.52;49.87;99435.10;1737345;82;21042;-75
2022/07/24 11:40:30;;;;;;;7.70;5.62;;;;;;;29.52;50.51;99439.20;1748920;82;21062;-71
2022/07/24 11:42:58;;;;;;;7.40;6.35;;;;;;;29.52;50.88;99442.51;1724943;80;21129;-73
2022/07/24 11:45:25;;;;;;;8.83;6.85;;;;;;;29.49;51.76;99445.27;1745170;82;21565;-75